sensor_id;sensor_type;location;lat;lon;timestamp;temperature;humidity
3794;DHT22;1912;51.358;12.282;2022-11-28T00:01:13;3.40;1.00
3794;DHT22;1912;51.358;12.282;2022-11-28T00:03:45;3.40;1.00
3794;DHT22;1912;51.358;12.282;2022-11-28T00:06:11;3.40;1.00
3794;DHT22;1912;51.358;12.282;2022-11-28T00:08:36;3.40;1.00
3794;DHT22;1912;51.358;12.282;2022-11-28T00:11:06;3.40;1.00
3794;DHT22;1912;51.358;12.282;2022-11-28T00:13:34;3.40;1.00
3794;DHT22;1912;51.358;12.282;2022-11-28T00:16:03;3.40;1.00
3794;DHT22;1912;51.358;12.282;2022-11-28T00:18:30;3.30;1.00
3794;DHT22;1912;51.358;12.282;2022-11-28T00:21:03;3.30;1.00
3794;DHT22;1912;51.358;12.282;2022-11-28T00:23:30;3.20;1.00
3794;DHT22;1912;51.358;12.282;2022-11-28T00:26:01;3.10;1.00
3794;DHT22;1912;51.358;12.282;2022-11-28T00:28:29;3.10;1.00
3794;DHT22;1912;51.358;12.282;2022-11-28T00:30:55;3.10;1.00
3794;DHT22;1912;51.358;12.282;2022-11-28T00:33:21;3.10;1.00
3794;DHT22;1912;51.358;12.282;2022-11-28T00:35:46;3.00;1.00
3794;DHT22;1912;51.358;12.282;2022-11-28T00:38:12;2.90;1.00
3794;DHT22;1912;51.358;12.282;2022-11-28T00:40:38;3.00;1.00
3794;DHT22;1912;51.358;12.282;2022-11-28T00:43:04;3.00;1.00
3794;DHT22;1912;51.358;12.282;2022-11-28T00:45:29;2.90;1.00
3794;DHT22;1912;51.358;12.282;2022-11-28T00:47:55;2.90;1.00
3794;DHT22;1912;51.358;12.282;2022-11-28T00:50:21;2.90;1.00
3794;DHT22;1912;51.358;12.282;2022-11-28T00:52:47;2.90;1.00
3794;DHT22;1912;51.358;12.282;2022-11-28T00:55:12;2.90;1.00
3794;DHT22;1912;51.358;12.282;2022-11-28T00:57:38;2.90;1.00
3794;DHT22;1912;51.358;12.282;2022-11-28T01:00:05;2.90;1.00
3794;DHT22;1912;51.358;12.282;2022-11-28T01:02:31;2.90;1.00
3794;DHT22;1912;51.358;12.282;2022-11-28T01:04:58;2.90;1.00
3794;DHT22;1912;51.358;12.282;2022-11-28T01:07:24;2.90;1.00
3794;DHT22;1912;51.358;12.282;2022-11-28T01:09:55;2.90;1.00
3794;DHT22;1912;51.358;12.282;2022-11-28T01:12:21;2.90;1.00
3794;DHT22;1912;51.358;12.282;2022-11-28T01:14:46;2.90;1.00
3794;DHT22;1912;51.358;12.282;2022-11-28T01:17:12;2.90;1.00
3794;DHT22;1912;51.358;12.282;2022-11-28T01:19:38;3.00;1.00
3794;DHT22;1912;51.358;12.282;2022-11-28T01:22:03;2.90;1.00
3794;DHT22;1912;51.358;12.282;2022-11-28T01:24:31;2.90;1.00
3794;DHT22;1912;51.358;12.282;2022-11-28T01:26:57;2.90;1.00
3794;DHT22;1912;51.358;12.282;2022-11-28T01:29:23;2.90;1.00
3794;DHT22;1912;51.358;12.282;2022-11-28T01:31:49;2.80;1.00
3794;DHT22;1912;51.358;12.282;2022-11-28T01:34:15;2.90;1.00
3794;DHT22;1912;51.358;12.282;2022-11-28T01:36:41;2.90;1.00
3794;DHT22;1912;51.358;12.282;2022-11-28T01:39:07;2.90;1.00
3794;DHT22;1912;51.358;12.282;2022-11-28T01:41:32;2.90;1.00
3794;DHT22;1912;51.358;12.282;2022-11-28T01:46:54;2.90;1.00
3794;DHT22;1912;51.358;12.282;2022-11-28T01:49:30;2.90;1.00
3794;DHT22;1912;51.358;12.282;2022-11-28T01:52:07;2.90;1.00
3794;DHT22;1912;51.358;12.282;2022-11-28T01:54:37;2.90;1.00
3794;DHT22;1912;51.358;12.282;2022-11-28T01:57:07;3.00;1.00
3794;DHT22;1912;51.358;12.282;2022-11-28T01:59:37;3.00;1.00
3794;DHT22;1912;51.358;12.282;2022-11-28T02:02:08;3.00;1.00
3794;DHT22;1912;51.358;12.282;2022-11-28T02:04:37;3.00;1.00
3794;DHT22;1912;51.358;12.282;2022-11-28T02:07:03;3.00;1.00
3794;DHT22;1912;51.358;12.282;2022-11-28T02:09:29;3.00;1.00
3794;DHT22;1912;51.358;12.282;2022-11-28T02:21:19;3.00;1.00
3794;DHT22;1912;51.358;12.282;2022-11-28T02:24:19;3.00;1.00
3794;DHT22;1912;51.358;12.282;2022-11-28T02:33:08;2.90;1.00
3794;DHT22;1912;51.358;12.282;2022-11-28T02:35:48;2.90;1.00
3794;DHT22;1912;51.358;12.282;2022-11-28T02:41:46;3.00;1.00
3794;DHT22;1912;51.358;12.282;2022-11-28T02:44:25;3.00;1.00
3794;DHT22;1912;51.358;12.282;2022-11-28T02:47:17;3.00;1.00
3794;DHT22;1912;51.358;12.282;2022-11-28T02:52:25;3.00;1.00
3794;DHT22;1912;51.358;12.282;2022-11-28T02:54:54;3.00;1.00
3794;DHT22;1912;51.358;12.282;2022-11-28T02:57:20;3.10;1.00
3794;DHT22;1912;51.358;12.282;2022-11-28T02:59:49;3.10;1.00
3794;DHT22;1912;51.358;12.282;2022-11-28T03:02:21;3.10;1.00
3794;DHT22;1912;51.358;12.282;2022-11-28T03:08:16;3.10;1.00
3794;DHT22;1912;51.358;12.282;2022-11-28T03:14:08;3.20;1.00
3794;DHT22;1912;51.358;12.282;2022-11-28T03:17:13;3.20;1.00
3794;DHT22;1912;51.358;12.282;2022-11-28T03:19:53;3.20;1.00
3794;DHT22;1912;51.358;12.282;2022-11-28T03:22:53;3.30;1.00
3794;DHT22;1912;51.358;12.282;2022-11-28T03:25:35;3.30;1.00
3794;DHT22;1912;51.358;12.282;2022-11-28T03:28:32;3.30;1.00
3794;DHT22;1912;51.358;12.282;2022-11-28T03:31:03;3.30;1.00
3794;DHT22;1912;51.358;12.282;2022-11-28T03:33:36;3.40;1.00
3794;DHT22;1912;51.358;12.282;2022-11-28T03:36:18;3.40;1.00
3794;DHT22;1912;51.358;12.282;2022-11-28T03:38:55;3.40;1.00
3794;DHT22;1912;51.358;12.282;2022-11-28T03:41:41;3.40;1.00
3794;DHT22;1912;51.358;12.282;2022-11-28T03:44:17;3.40;1.00
3794;DHT22;1912;51.358;12.282;2022-11-28T03:46:57;3.40;1.00
3794;DHT22;1912;51.358;12.282;2022-11-28T03:49:28;3.40;1.00
3794;DHT22;1912;51.358;12.282;2022-11-28T03:52:00;3.50;1.00
3794;DHT22;1912;51.358;12.282;2022-11-28T03:54:36;3.50;1.00
3794;DHT22;1912;51.358;12.282;2022-11-28T03:59:56;3.50;1.00
3794;DHT22;1912;51.358;12.282;2022-11-28T04:02:42;3.40;1.00
3794;DHT22;1912;51.358;12.282;2022-11-28T04:05:41;3.40;1.00
3794;DHT22;1912;51.358;12.282;2022-11-28T04:08:38;3.40;1.00
3794;DHT22;1912;51.358;12.282;2022-11-28T04:11:12;3.50;1.00
3794;DHT22;1912;51.358;12.282;2022-11-28T04:13:53;3.50;1.00
3794;DHT22;1912;51.358;12.282;2022-11-28T04:16:40;3.50;1.00
3794;DHT22;1912;51.358;12.282;2022-11-28T04:22:09;3.50;1.00
3794;DHT22;1912;51.358;12.282;2022-11-28T04:24:56;3.50;1.00
3794;DHT22;1912;51.358;12.282;2022-11-28T04:27:32;3.50;1.00
3794;DHT22;1912;51.358;12.282;2022-11-28T04:30:02;3.50;1.00
3794;DHT22;1912;51.358;12.282;2022-11-28T04:32:30;3.60;1.00
3794;DHT22;1912;51.358;12.282;2022-11-28T04:35:05;3.60;1.00
3794;DHT22;1912;51.358;12.282;2022-11-28T04:37:36;3.60;1.00
3794;DHT22;1912;51.358;12.282;2022-11-28T04:40:05;3.60;1.00
3794;DHT22;1912;51.358;12.282;2022-11-28T04:42:58;3.60;1.00
3794;DHT22;1912;51.358;12.282;2022-11-28T04:45:45;3.60;1.00
3794;DHT22;1912;51.358;12.282;2022-11-28T04:48:34;3.60;1.00
3794;DHT22;1912;51.358;12.282;2022-11-28T04:51:20;3.60;1.00
3794;DHT22;1912;51.358;12.282;2022-11-28T04:54:04;3.50;1.00
3794;DHT22;1912;51.358;12.282;2022-11-28T04:56:43;3.60;1.00
3794;DHT22;1912;51.358;12.282;2022-11-28T04:59:12;3.50;1.00
3794;DHT22;1912;51.358;12.282;2022-11-28T05:01:41;3.50;1.00
3794;DHT22;1912;51.358;12.282;2022-11-28T05:04:08;3.60;1.00
3794;DHT22;1912;51.358;12.282;2022-11-28T05:06:35;3.60;1.00
3794;DHT22;1912;51.358;12.282;2022-11-28T05:09:02;3.50;1.00
3794;DHT22;1912;51.358;12.282;2022-11-28T05:11:28;3.50;1.00
3794;DHT22;1912;51.358;12.282;2022-11-28T05:13:54;3.50;1.00
3794;DHT22;1912;51.358;12.282;2022-11-28T05:16:21;3.50;1.00
3794;DHT22;1912;51.358;12.282;2022-11-28T05:18:47;3.50;1.00
3794;DHT22;1912;51.358;12.282;2022-11-28T05:21:13;3.50;1.00
3794;DHT22;1912;51.358;12.282;2022-11-28T05:23:42;3.50;1.00
3794;DHT22;1912;51.358;12.282;2022-11-28T05:26:14;3.50;1.00
3794;DHT22;1912;51.358;12.282;2022-11-28T05:28:43;3.50;1.00
3794;DHT22;1912;51.358;12.282;2022-11-28T05:31:10;3.40;1.00
3794;DHT22;1912;51.358;12.282;2022-11-28T05:33:35;3.50;1.00
3794;DHT22;1912;51.358;12.282;2022-11-28T05:36:10;3.50;1.00
3794;DHT22;1912;51.358;12.282;2022-11-28T05:38:37;3.50;1.00
3794;DHT22;1912;51.358;12.282;2022-11-28T05:41:03;3.50;1.00
3794;DHT22;1912;51.358;12.282;2022-11-28T05:43:30;3.50;1.00
3794;DHT22;1912;51.358;12.282;2022-11-28T05:45:56;3.50;1.00
3794;DHT22;1912;51.358;12.282;2022-11-28T05:48:22;3.50;1.00
3794;DHT22;1912;51.358;12.282;2022-11-28T05:50:49;3.50;1.00
3794;DHT22;1912;51.358;12.282;2022-11-28T05:53:16;3.50;1.00
3794;DHT22;1912;51.358;12.282;2022-11-28T05:55:43;3.50;1.00
3794;DHT22;1912;51.358;12.282;2022-11-28T05:58:09;3.50;1.00
3794;DHT22;1912;51.358;12.282;2022-11-28T06:00:35;3.50;1.00
3794;DHT22;1912;51.358;12.282;2022-11-28T06:03:01;3.40;1.00
3794;DHT22;1912;51.358;12.282;2022-11-28T06:05:28;3.30;1.00
3794;DHT22;1912;51.358;12.282;2022-11-28T06:07:54;3.30;1.00
3794;DHT22;1912;51.358;12.282;2022-11-28T06:10:20;3.40;1.00
3794;DHT22;1912;51.358;12.282;2022-11-28T06:12:47;3.40;1.00
3794;DHT22;1912;51.358;12.282;2022-11-28T06:15:13;3.40;1.00
3794;DHT22;1912;51.358;12.282;2022-11-28T06:17:39;3.40;1.00
3794;DHT22;1912;51.358;12.282;2022-11-28T06:20:05;3.40;1.00
3794;DHT22;1912;51.358;12.282;2022-11-28T06:22:32;3.40;1.00
3794;DHT22;1912;51.358;12.282;2022-11-28T06:24:58;3.40;1.00
3794;DHT22;1912;51.358;12.282;2022-11-28T06:27:23;3.40;1.00
3794;DHT22;1912;51.358;12.282;2022-11-28T06:29:49;3.50;1.00
3794;DHT22;1912;51.358;12.282;2022-11-28T06:32:15;3.50;1.00
3794;DHT22;1912;51.358;12.282;2022-11-28T06:34:41;3.50;1.00
3794;DHT22;1912;51.358;12.282;2022-11-28T06:37:07;3.50;1.00
3794;DHT22;1912;51.358;12.282;2022-11-28T06:39:32;3.60;1.00
3794;DHT22;1912;51.358;12.282;2022-11-28T06:41:58;3.60;1.00
3794;DHT22;1912;51.358;12.282;2022-11-28T06:44:24;3.50;1.00
3794;DHT22;1912;51.358;12.282;2022-11-28T06:46:49;3.50;1.00
3794;DHT22;1912;51.358;12.282;2022-11-28T06:49:15;3.50;1.00
3794;DHT22;1912;51.358;12.282;2022-11-28T06:51:41;3.50;1.00
3794;DHT22;1912;51.358;12.282;2022-11-28T06:54:08;3.50;1.00
3794;DHT22;1912;51.358;12.282;2022-11-28T06:56:33;3.50;1.00
3794;DHT22;1912;51.358;12.282;2022-11-28T06:59:00;3.50;1.00
3794;DHT22;1912;51.358;12.282;2022-11-28T07:01:29;3.50;1.00
3794;DHT22;1912;51.358;12.282;2022-11-28T07:03:55;3.50;1.00
3794;DHT22;1912;51.358;12.282;2022-11-28T07:06:23;3.60;1.00
3794;DHT22;1912;51.358;12.282;2022-11-28T07:08:49;3.60;1.00
3794;DHT22;1912;51.358;12.282;2022-11-28T07:11:21;3.60;1.00
3794;DHT22;1912;51.358;12.282;2022-11-28T07:13:49;3.60;1.00
3794;DHT22;1912;51.358;12.282;2022-11-28T07:16:23;3.60;1.00
3794;DHT22;1912;51.358;12.282;2022-11-28T07:18:51;3.70;1.00
3794;DHT22;1912;51.358;12.282;2022-11-28T07:21:18;3.60;1.00
3794;DHT22;1912;51.358;12.282;2022-11-28T07:23:45;3.60;1.00
3794;DHT22;1912;51.358;12.282;2022-11-28T07:26:13;3.60;1.00
3794;DHT22;1912;51.358;12.282;2022-11-28T07:28:41;3.60;1.00
3794;DHT22;1912;51.358;12.282;2022-11-28T07:31:10;3.60;1.00
3794;DHT22;1912;51.358;12.282;2022-11-28T07:33:38;3.60;1.00
3794;DHT22;1912;51.358;12.282;2022-11-28T07:36:13;3.60;1.00
3794;DHT22;1912;51.358;12.282;2022-11-28T07:38:40;3.70;1.00
3794;DHT22;1912;51.358;12.282;2022-11-28T07:41:08;3.70;1.00
3794;DHT22;1912;51.358;12.282;2022-11-28T07:43:37;3.60;1.00
3794;DHT22;1912;51.358;12.282;2022-11-28T07:46:06;3.70;1.00
3794;DHT22;1912;51.358;12.282;2022-11-28T07:48:33;3.70;1.00
3794;DHT22;1912;51.358;12.282;2022-11-28T07:50:59;3.70;1.00
3794;DHT22;1912;51.358;12.282;2022-11-28T07:53:30;3.80;1.00
3794;DHT22;1912;51.358;12.282;2022-11-28T07:55:55;3.80;1.00
3794;DHT22;1912;51.358;12.282;2022-11-28T07:58:25;3.80;1.00
3794;DHT22;1912;51.358;12.282;2022-11-28T08:00:51;3.90;1.00
3794;DHT22;1912;51.358;12.282;2022-11-28T08:03:17;3.90;1.00
3794;DHT22;1912;51.358;12.282;2022-11-28T08:05:42;3.90;1.00
3794;DHT22;1912;51.358;12.282;2022-11-28T08:08:17;4.00;1.00
3794;DHT22;1912;51.358;12.282;2022-11-28T08:10:44;4.00;1.00
3794;DHT22;1912;51.358;12.282;2022-11-28T08:13:12;4.00;1.00
3794;DHT22;1912;51.358;12.282;2022-11-28T08:15:39;4.10;1.00
3794;DHT22;1912;51.358;12.282;2022-11-28T08:18:06;4.10;1.00
3794;DHT22;1912;51.358;12.282;2022-11-28T08:20:32;4.10;1.00
3794;DHT22;1912;51.358;12.282;2022-11-28T08:22:57;4.20;1.00
3794;DHT22;1912;51.358;12.282;2022-11-28T08:25:23;4.20;1.00
3794;DHT22;1912;51.358;12.282;2022-11-28T08:27:49;4.20;1.00
3794;DHT22;1912;51.358;12.282;2022-11-28T08:30:15;4.30;1.00
3794;DHT22;1912;51.358;12.282;2022-11-28T08:32:40;4.20;1.00
3794;DHT22;1912;51.358;12.282;2022-11-28T08:35:06;4.30;1.00
3794;DHT22;1912;51.358;12.282;2022-11-28T08:37:32;4.30;1.00
3794;DHT22;1912;51.358;12.282;2022-11-28T08:39:58;4.30;1.00
3794;DHT22;1912;51.358;12.282;2022-11-28T08:42:23;4.30;1.00
3794;DHT22;1912;51.358;12.282;2022-11-28T08:44:49;4.30;1.00
3794;DHT22;1912;51.358;12.282;2022-11-28T08:47:15;4.30;1.00
3794;DHT22;1912;51.358;12.282;2022-11-28T08:49:40;4.40;1.00
3794;DHT22;1912;51.358;12.282;2022-11-28T08:52:06;4.40;1.00
3794;DHT22;1912;51.358;12.282;2022-11-28T08:54:32;4.40;1.00
3794;DHT22;1912;51.358;12.282;2022-11-28T08:56:57;4.50;1.00
3794;DHT22;1912;51.358;12.282;2022-11-28T08:59:23;4.50;1.00
3794;DHT22;1912;51.358;12.282;2022-11-28T09:01:51;4.60;1.00
3794;DHT22;1912;51.358;12.282;2022-11-28T09:04:18;4.60;1.00
3794;DHT22;1912;51.358;12.282;2022-11-28T09:06:44;4.60;1.00
3794;DHT22;1912;51.358;12.282;2022-11-28T09:09:10;4.60;1.00
3794;DHT22;1912;51.358;12.282;2022-11-28T09:11:36;4.70;1.00
3794;DHT22;1912;51.358;12.282;2022-11-28T09:14:02;4.80;1.00
3794;DHT22;1912;51.358;12.282;2022-11-28T09:16:28;4.80;1.00
3794;DHT22;1912;51.358;12.282;2022-11-28T09:18:54;4.80;1.00
3794;DHT22;1912;51.358;12.282;2022-11-28T09:21:22;4.90;1.00
3794;DHT22;1912;51.358;12.282;2022-11-28T09:23:47;5.00;1.00
3794;DHT22;1912;51.358;12.282;2022-11-28T09:26:18;5.10;1.00
3794;DHT22;1912;51.358;12.282;2022-11-28T09:28:45;5.10;1.00
3794;DHT22;1912;51.358;12.282;2022-11-28T09:31:11;5.10;1.00
3794;DHT22;1912;51.358;12.282;2022-11-28T09:33:38;5.10;1.00
3794;DHT22;1912;51.358;12.282;2022-11-28T09:36:05;5.20;1.00
3794;DHT22;1912;51.358;12.282;2022-11-28T09:38:35;5.30;1.00
3794;DHT22;1912;51.358;12.282;2022-11-28T09:41:02;5.40;1.00
3794;DHT22;1912;51.358;12.282;2022-11-28T09:43:34;5.40;1.00
3794;DHT22;1912;51.358;12.282;2022-11-28T09:46:06;5.40;1.00
3794;DHT22;1912;51.358;12.282;2022-11-28T09:48:41;5.40;1.00
3794;DHT22;1912;51.358;12.282;2022-11-28T09:51:33;5.40;1.00
3794;DHT22;1912;51.358;12.282;2022-11-28T09:54:28;5.40;1.00
3794;DHT22;1912;51.358;12.282;2022-11-28T09:56:59;5.40;1.00
3794;DHT22;1912;51.358;12.282;2022-11-28T09:59:28;5.50;1.00
3794;DHT22;1912;51.358;12.282;2022-11-28T10:04:47;5.50;1.00
3794;DHT22;1912;51.358;12.282;2022-11-28T10:07:39;5.40;1.00
3794;DHT22;1912;51.358;12.282;2022-11-28T10:11:01;5.40;1.00
3794;DHT22;1912;51.358;12.282;2022-11-28T10:17:21;5.50;1.00
3794;DHT22;1912;51.358;12.282;2022-11-28T10:19:50;5.50;1.00
3794;DHT22;1912;51.358;12.282;2022-11-28T10:22:35;5.50;1.00
3794;DHT22;1912;51.358;12.282;2022-11-28T10:25:35;5.60;1.00
3794;DHT22;1912;51.358;12.282;2022-11-28T10:28:08;5.60;1.00
3794;DHT22;1912;51.358;12.282;2022-11-28T10:30:42;5.60;1.00
3794;DHT22;1912;51.358;12.282;2022-11-28T10:33:33;5.70;1.00
3794;DHT22;1912;51.358;12.282;2022-11-28T10:36:19;5.80;1.00
3794;DHT22;1912;51.358;12.282;2022-11-28T10:38:49;5.80;1.00
3794;DHT22;1912;51.358;12.282;2022-11-28T10:41:25;5.80;1.00
3794;DHT22;1912;51.358;12.282;2022-11-28T10:44:09;5.80;1.00
3794;DHT22;1912;51.358;12.282;2022-11-28T10:46:55;5.80;1.00
3794;DHT22;1912;51.358;12.282;2022-11-28T10:52:22;5.80;1.00
3794;DHT22;1912;51.358;12.282;2022-11-28T10:58:12;5.90;1.00
3794;DHT22;1912;51.358;12.282;2022-11-28T11:00:44;5.90;1.00
3794;DHT22;1912;51.358;12.282;2022-11-28T11:03:16;5.90;1.00
3794;DHT22;1912;51.358;12.282;2022-11-28T11:05:50;6.00;1.00
3794;DHT22;1912;51.358;12.282;2022-11-28T11:08:24;6.00;1.00
3794;DHT22;1912;51.358;12.282;2022-11-28T11:10:52;6.00;1.00
3794;DHT22;1912;51.358;12.282;2022-11-28T11:13:27;6.00;1.00
3794;DHT22;1912;51.358;12.282;2022-11-28T11:16:05;6.00;1.00
3794;DHT22;1912;51.358;12.282;2022-11-28T11:18:36;6.00;1.00
3794;DHT22;1912;51.358;12.282;2022-11-28T11:21:19;6.00;1.00
3794;DHT22;1912;51.358;12.282;2022-11-28T11:23:47;6.10;1.00
3794;DHT22;1912;51.358;12.282;2022-11-28T11:26:30;6.10;1.00
3794;DHT22;1912;51.358;12.282;2022-11-28T11:28:59;6.10;1.00
3794;DHT22;1912;51.358;12.282;2022-11-28T11:31:30;6.10;1.00
3794;DHT22;1912;51.358;12.282;2022-11-28T11:34:03;6.20;1.00
3794;DHT22;1912;51.358;12.282;2022-11-28T11:36:33;6.10;1.00
3794;DHT22;1912;51.358;12.282;2022-11-28T11:39:21;6.10;1.00
3794;DHT22;1912;51.358;12.282;2022-11-28T11:42:14;6.20;1.00
3794;DHT22;1912;51.358;12.282;2022-11-28T11:44:40;6.20;1.00
3794;DHT22;1912;51.358;12.282;2022-11-28T11:47:08;6.20;1.00
3794;DHT22;1912;51.358;12.282;2022-11-28T11:49:42;6.20;1.00
3794;DHT22;1912;51.358;12.282;2022-11-28T11:54:39;6.20;1.00
3794;DHT22;1912;51.358;12.282;2022-11-28T11:57:31;6.20;1.00
3794;DHT22;1912;51.358;12.282;2022-11-28T12:02:51;6.20;1.00
3794;DHT22;1912;51.358;12.282;2022-11-28T12:05:22;6.30;1.00
3794;DHT22;1912;51.358;12.282;2022-11-28T12:08:11;6.30;1.00
3794;DHT22;1912;51.358;12.282;2022-11-28T12:10:49;6.30;1.00
3794;DHT22;1912;51.358;12.282;2022-11-28T12:13:20;6.40;1.00
3794;DHT22;1912;51.358;12.282;2022-11-28T12:19:37;6.40;1.00
3794;DHT22;1912;51.358;12.282;2022-11-28T12:23:14;6.40;1.00
3794;DHT22;1912;51.358;12.282;2022-11-28T12:26:39;6.40;1.00
3794;DHT22;1912;51.358;12.282;2022-11-28T12:29:30;6.40;1.00
3794;DHT22;1912;51.358;12.282;2022-11-28T12:37:28;6.50;1.00
3794;DHT22;1912;51.358;12.282;2022-11-28T12:42:40;6.50;1.00
3794;DHT22;1912;51.358;12.282;2022-11-28T12:51:28;6.50;1.00
3794;DHT22;1912;51.358;12.282;2022-11-28T12:59:57;6.60;1.00
3794;DHT22;1912;51.358;12.282;2022-11-28T13:05:59;6.50;1.00
3794;DHT22;1912;51.358;12.282;2022-11-28T13:08:56;6.50;1.00
3794;DHT22;1912;51.358;12.282;2022-11-28T13:11:44;6.50;1.00
3794;DHT22;1912;51.358;12.282;2022-11-28T13:14:29;6.50;1.00
3794;DHT22;1912;51.358;12.282;2022-11-28T13:20:15;6.50;1.00
3794;DHT22;1912;51.358;12.282;2022-11-28T13:23:16;6.60;1.00
3794;DHT22;1912;51.358;12.282;2022-11-28T13:25:53;6.50;1.00
3794;DHT22;1912;51.358;12.282;2022-11-28T13:28:59;6.60;1.00
3794;DHT22;1912;51.358;12.282;2022-11-28T13:34:18;6.60;1.00
3794;DHT22;1912;51.358;12.282;2022-11-28T13:36:50;6.60;1.00
3794;DHT22;1912;51.358;12.282;2022-11-28T13:45:23;6.60;1.00
3794;DHT22;1912;51.358;12.282;2022-11-28T13:47:51;6.60;1.00
3794;DHT22;1912;51.358;12.282;2022-11-28T13:55:42;6.60;1.00
3794;DHT22;1912;51.358;12.282;2022-11-28T13:58:30;6.50;1.00
3794;DHT22;1912;51.358;12.282;2022-11-28T14:03:41;6.60;1.00
3794;DHT22;1912;51.358;12.282;2022-11-28T14:06:12;6.50;1.00
3794;DHT22;1912;51.358;12.282;2022-11-28T14:08:42;6.50;1.00
3794;DHT22;1912;51.358;12.282;2022-11-28T14:20:44;6.40;1.00
3794;DHT22;1912;51.358;12.282;2022-11-28T14:26:33;6.40;1.00
3794;DHT22;1912;51.358;12.282;2022-11-28T14:29:02;6.40;1.00
3794;DHT22;1912;51.358;12.282;2022-11-28T14:31:39;6.30;1.00
3794;DHT22;1912;51.358;12.282;2022-11-28T14:34:09;6.30;1.00
3794;DHT22;1912;51.358;12.282;2022-11-28T14:39:50;6.30;1.00
3794;DHT22;1912;51.358;12.282;2022-11-28T14:44:58;6.40;1.00
3794;DHT22;1912;51.358;12.282;2022-11-28T14:47:32;6.30;1.00
3794;DHT22;1912;51.358;12.282;2022-11-28T14:57:37;6.20;1.00
3794;DHT22;1912;51.358;12.282;2022-11-28T15:00:27;6.20;1.00
3794;DHT22;1912;51.358;12.282;2022-11-28T15:05:50;6.30;1.00
3794;DHT22;1912;51.358;12.282;2022-11-28T15:08:31;6.20;1.00
3794;DHT22;1912;51.358;12.282;2022-11-28T15:14:09;6.20;1.00
3794;DHT22;1912;51.358;12.282;2022-11-28T15:16:44;6.20;1.00
3794;DHT22;1912;51.358;12.282;2022-11-28T15:19:38;6.20;1.00
3794;DHT22;1912;51.358;12.282;2022-11-28T15:22:28;6.20;1.00
3794;DHT22;1912;51.358;12.282;2022-11-28T15:24:55;6.10;1.00
3794;DHT22;1912;51.358;12.282;2022-11-28T15:27:25;6.10;1.00
3794;DHT22;1912;51.358;12.282;2022-11-28T15:29:59;6.10;1.00
3794;DHT22;1912;51.358;12.282;2022-11-28T15:32:27;6.10;1.00
3794;DHT22;1912;51.358;12.282;2022-11-28T15:34:58;6.10;1.00
3794;DHT22;1912;51.358;12.282;2022-11-28T15:37:30;6.10;1.00
3794;DHT22;1912;51.358;12.282;2022-11-28T15:40:00;6.10;1.00
3794;DHT22;1912;51.358;12.282;2022-11-28T15:42:33;6.10;1.00
3794;DHT22;1912;51.358;12.282;2022-11-28T15:47:52;6.10;1.00
3794;DHT22;1912;51.358;12.282;2022-11-28T15:55:31;6.10;1.00
3794;DHT22;1912;51.358;12.282;2022-11-28T15:58:11;6.10;1.00
3794;DHT22;1912;51.358;12.282;2022-11-28T16:03:56;6.10;1.00
3794;DHT22;1912;51.358;12.282;2022-11-28T16:06:34;6.10;1.00
3794;DHT22;1912;51.358;12.282;2022-11-28T16:09:04;6.10;1.00
3794;DHT22;1912;51.358;12.282;2022-11-28T16:11:33;6.10;1.00
3794;DHT22;1912;51.358;12.282;2022-11-28T16:14:06;6.00;1.00
3794;DHT22;1912;51.358;12.282;2022-11-28T16:16:34;6.10;1.00
3794;DHT22;1912;51.358;12.282;2022-11-28T16:19:04;6.00;1.00
3794;DHT22;1912;51.358;12.282;2022-11-28T16:24:31;6.00;1.00
3794;DHT22;1912;51.358;12.282;2022-11-28T16:27:01;6.00;1.00
3794;DHT22;1912;51.358;12.282;2022-11-28T16:29:33;6.00;1.00
3794;DHT22;1912;51.358;12.282;2022-11-28T16:32:22;6.00;1.00
3794;DHT22;1912;51.358;12.282;2022-11-28T16:34:56;6.00;1.00
3794;DHT22;1912;51.358;12.282;2022-11-28T16:37:29;6.00;1.00
3794;DHT22;1912;51.358;12.282;2022-11-28T16:40:16;5.90;1.00
3794;DHT22;1912;51.358;12.282;2022-11-28T16:42:52;6.00;1.00
3794;DHT22;1912;51.358;12.282;2022-11-28T16:45:30;5.90;1.00
3794;DHT22;1912;51.358;12.282;2022-11-28T16:50:33;5.90;1.00
3794;DHT22;1912;51.358;12.282;2022-11-28T16:52:59;5.90;1.00
3794;DHT22;1912;51.358;12.282;2022-11-28T17:00:42;5.90;1.00
3794;DHT22;1912;51.358;12.282;2022-11-28T17:03:48;5.90;1.00
3794;DHT22;1912;51.358;12.282;2022-11-28T17:06:18;5.90;1.00
3794;DHT22;1912;51.358;12.282;2022-11-28T17:08:49;5.90;1.00
3794;DHT22;1912;51.358;12.282;2022-11-28T17:11:18;5.80;1.00
3794;DHT22;1912;51.358;12.282;2022-11-28T17:13:45;5.80;1.00
3794;DHT22;1912;51.358;12.282;2022-11-28T17:16:15;5.80;1.00
3794;DHT22;1912;51.358;12.282;2022-11-28T17:18:43;5.80;1.00
3794;DHT22;1912;51.358;12.282;2022-11-28T17:21:13;5.80;1.00
3794;DHT22;1912;51.358;12.282;2022-11-28T17:23:40;5.80;1.00
3794;DHT22;1912;51.358;12.282;2022-11-28T17:26:07;5.80;1.00
3794;DHT22;1912;51.358;12.282;2022-11-28T17:28:34;5.80;1.00
3794;DHT22;1912;51.358;12.282;2022-11-28T17:31:00;5.80;1.00
3794;DHT22;1912;51.358;12.282;2022-11-28T17:33:26;5.70;1.00
3794;DHT22;1912;51.358;12.282;2022-11-28T17:35:52;5.70;1.00
3794;DHT22;1912;51.358;12.282;2022-11-28T17:38:18;5.70;1.00
3794;DHT22;1912;51.358;12.282;2022-11-28T17:40:47;5.70;1.00
3794;DHT22;1912;51.358;12.282;2022-11-28T17:43:17;5.70;1.00
3794;DHT22;1912;51.358;12.282;2022-11-28T17:45:44;5.70;1.00
3794;DHT22;1912;51.358;12.282;2022-11-28T17:48:11;5.70;1.00
3794;DHT22;1912;51.358;12.282;2022-11-28T17:50:47;5.70;1.00
3794;DHT22;1912;51.358;12.282;2022-11-28T17:53:16;5.70;1.00
3794;DHT22;1912;51.358;12.282;2022-11-28T17:55:45;5.70;1.00
3794;DHT22;1912;51.358;12.282;2022-11-28T17:58:20;5.70;1.00
3794;DHT22;1912;51.358;12.282;2022-11-28T18:00:50;5.70;1.00
3794;DHT22;1912;51.358;12.282;2022-11-28T18:03:17;5.60;1.00
3794;DHT22;1912;51.358;12.282;2022-11-28T18:05:45;5.60;1.00
3794;DHT22;1912;51.358;12.282;2022-11-28T18:08:13;5.60;1.00
3794;DHT22;1912;51.358;12.282;2022-11-28T18:10:40;5.60;1.00
3794;DHT22;1912;51.358;12.282;2022-11-28T18:13:07;5.60;1.00
3794;DHT22;1912;51.358;12.282;2022-11-28T18:15:34;5.60;1.00
3794;DHT22;1912;51.358;12.282;2022-11-28T18:18:01;5.60;1.00
3794;DHT22;1912;51.358;12.282;2022-11-28T18:20:29;5.60;1.00
3794;DHT22;1912;51.358;12.282;2022-11-28T18:22:57;5.60;1.00
3794;DHT22;1912;51.358;12.282;2022-11-28T18:25:24;5.60;1.00
3794;DHT22;1912;51.358;12.282;2022-11-28T18:27:50;5.60;1.00
3794;DHT22;1912;51.358;12.282;2022-11-28T18:30:16;5.60;1.00
3794;DHT22;1912;51.358;12.282;2022-11-28T18:32:42;5.50;1.00
3794;DHT22;1912;51.358;12.282;2022-11-28T18:35:08;5.60;1.00
3794;DHT22;1912;51.358;12.282;2022-11-28T18:37:34;5.50;1.00
3794;DHT22;1912;51.358;12.282;2022-11-28T18:40:00;5.60;1.00
3794;DHT22;1912;51.358;12.282;2022-11-28T18:42:26;5.50;1.00
3794;DHT22;1912;51.358;12.282;2022-11-28T18:44:51;5.60;1.00
3794;DHT22;1912;51.358;12.282;2022-11-28T18:47:17;5.50;1.00
3794;DHT22;1912;51.358;12.282;2022-11-28T18:49:43;5.50;1.00
3794;DHT22;1912;51.358;12.282;2022-11-28T18:52:08;5.50;1.00
3794;DHT22;1912;51.358;12.282;2022-11-28T18:54:34;5.50;1.00
3794;DHT22;1912;51.358;12.282;2022-11-28T18:57:03;5.50;1.00
3794;DHT22;1912;51.358;12.282;2022-11-28T18:59:31;5.50;1.00
3794;DHT22;1912;51.358;12.282;2022-11-28T19:01:56;5.70;1.00
3794;DHT22;1912;51.358;12.282;2022-11-28T19:04:23;5.60;1.00
3794;DHT22;1912;51.358;12.282;2022-11-28T19:06:48;5.50;1.00
3794;DHT22;1912;51.358;12.282;2022-11-28T19:09:15;5.50;1.00
3794;DHT22;1912;51.358;12.282;2022-11-28T19:11:42;5.50;1.00
3794;DHT22;1912;51.358;12.282;2022-11-28T19:14:12;5.40;1.00
3794;DHT22;1912;51.358;12.282;2022-11-28T19:16:39;5.40;1.00
3794;DHT22;1912;51.358;12.282;2022-11-28T19:19:05;5.40;1.00
3794;DHT22;1912;51.358;12.282;2022-11-28T19:21:33;5.40;1.00
3794;DHT22;1912;51.358;12.282;2022-11-28T19:24:00;5.40;1.00